sensor_id;sensor_type;location;lat;lon;timestamp;temperature;humidity
25214;DHT22;13160;51.834;4.706;2024-01-06T03:48:12;6.30;99.90
25214;DHT22;13160;51.834;4.706;2024-01-06T03:50:43;6.30;99.90
25214;DHT22;13160;51.834;4.706;2024-01-06T03:53:12;6.30;99.90
25214;DHT22;13160;51.834;4.706;2024-01-06T03:55:41;6.30;99.90
25214;DHT22;13160;51.834;4.706;2024-01-06T03:58:10;6.30;99.90
25214;DHT22;13160;51.834;4.706;2024-01-06T04:00:39;6.30;99.90
25214;DHT22;13160;51.834;4.706;2024-01-06T04:03:10;6.30;99.90
25214;DHT22;13160;51.834;4.706;2024-01-06T04:05:44;6.30;99.90
25214;DHT22;13160;51.834;4.706;2024-01-06T04:08:13;6.20;99.90
25214;DHT22;13160;51.834;4.706;2024-01-06T04:10:42;6.30;99.90
25214;DHT22;13160;51.834;4.706;2024-01-06T04:13:15;6.30;99.90
25214;DHT22;13160;51.834;4.706;2024-01-06T04:15:44;6.30;99.90
25214;DHT22;13160;51.834;4.706;2024-01-06T04:18:16;6.30;99.90
25214;DHT22;13160;51.834;4.706;2024-01-06T04:20:47;6.30;99.90
25214;DHT22;13160;51.834;4.706;2024-01-06T04:23:16;6.30;99.90
25214;DHT22;13160;51.834;4.706;2024-01-06T04:25:49;6.30;99.90
25214;DHT22;13160;51.834;4.706;2024-01-06T04:28:18;6.30;99.90
25214;DHT22;13160;51.834;4.706;2024-01-06T04:30:48;6.30;99.90
25214;DHT22;13160;51.834;4.706;2024-01-06T04:33:18;6.20;99.90
25214;DHT22;13160;51.834;4.706;2024-01-06T04:35:48;6.30;99.90
25214;DHT22;13160;51.834;4.706;2024-01-06T04:38:18;6.20;99.90
25214;DHT22;13160;51.834;4.706;2024-01-06T04:40:46;6.20;99.90
25214;DHT22;13160;51.834;4.706;2024-01-06T04:43:15;6.30;99.90
25214;DHT22;13160;51.834;4.706;2024-01-06T04:45:44;6.20;99.90
25214;DHT22;13160;51.834;4.706;2024-01-06T04:48:13;6.20;99.90
25214;DHT22;13160;51.834;4.706;2024-01-06T04:50:43;6.20;99.90
25214;DHT22;13160;51.834;4.706;2024-01-06T04:53:13;6.10;99.90
25214;DHT22;13160;51.834;4.706;2024-01-06T04:55:41;6.20;99.90
25214;DHT22;13160;51.834;4.706;2024-01-06T04:58:11;6.20;99.90
25214;DHT22;13160;51.834;4.706;2024-01-06T05:00:40;6.10;99.90
25214;DHT22;13160;51.834;4.706;2024-01-06T05:03:09;6.10;99.90
25214;DHT22;13160;51.834;4.706;2024-01-06T05:05:37;6.10;99.90
25214;DHT22;13160;51.834;4.706;2024-01-06T05:08:06;6.10;99.90
25214;DHT22;13160;51.834;4.706;2024-01-06T05:10:36;6.10;99.90
25214;DHT22;13160;51.834;4.706;2024-01-06T05:13:05;6.10;99.90
25214;DHT22;13160;51.834;4.706;2024-01-06T05:15:34;6.10;99.90
25214;DHT22;13160;51.834;4.706;2024-01-06T05:18:04;6.10;99.90
25214;DHT22;13160;51.834;4.706;2024-01-06T05:20:34;6.00;99.90
25214;DHT22;13160;51.834;4.706;2024-01-06T05:23:03;6.10;99.90
25214;DHT22;13160;51.834;4.706;2024-01-06T05:25:32;6.10;99.90
25214;DHT22;13160;51.834;4.706;2024-01-06T05:28:02;6.10;99.90
25214;DHT22;13160;51.834;4.706;2024-01-06T05:30:32;6.10;99.90
25214;DHT22;13160;51.834;4.706;2024-01-06T05:33:01;6.10;99.90
25214;DHT22;13160;51.834;4.706;2024-01-06T05:35:30;6.10;99.90
25214;DHT22;13160;51.834;4.706;2024-01-06T05:37:59;6.10;99.90
25214;DHT22;13160;51.834;4.706;2024-01-06T05:40:28;6.10;99.90
25214;DHT22;13160;51.834;4.706;2024-01-06T05:42:58;6.00;99.90
25214;DHT22;13160;51.834;4.706;2024-01-06T05:45:28;6.10;99.90
25214;DHT22;13160;51.834;4.706;2024-01-06T05:47:57;6.10;99.90
25214;DHT22;13160;51.834;4.706;2024-01-06T05:50:26;6.10;99.90
25214;DHT22;13160;51.834;4.706;2024-01-06T05:52:55;6.10;99.90
25214;DHT22;13160;51.834;4.706;2024-01-06T05:55:24;6.10;99.90
25214;DHT22;13160;51.834;4.706;2024-01-06T05:57:53;6.10;99.90
25214;DHT22;13160;51.834;4.706;2024-01-06T06:00:22;6.10;99.90
25214;DHT22;13160;51.834;4.706;2024-01-06T06:02:52;6.10;99.90
25214;DHT22;13160;51.834;4.706;2024-01-06T06:05:21;6.00;99.90
25214;DHT22;13160;51.834;4.706;2024-01-06T06:07:50;6.00;99.90
25214;DHT22;13160;51.834;4.706;2024-01-06T06:10:19;6.00;99.90
25214;DHT22;13160;51.834;4.706;2024-01-06T06:12:48;6.00;99.90
25214;DHT22;13160;51.834;4.706;2024-01-06T06:15:17;6.00;99.90
25214;DHT22;13160;51.834;4.706;2024-01-06T06:17:46;6.00;99.90
25214;DHT22;13160;51.834;4.706;2024-01-06T06:20:16;6.00;99.90
25214;DHT22;13160;51.834;4.706;2024-01-06T06:22:45;6.00;99.90
25214;DHT22;13160;51.834;4.706;2024-01-06T06:25:14;6.00;99.90
25214;DHT22;13160;51.834;4.706;2024-01-06T06:27:43;6.00;99.90
25214;DHT22;13160;51.834;4.706;2024-01-06T06:30:12;6.00;99.90
25214;DHT22;13160;51.834;4.706;2024-01-06T06:32:41;5.90;99.90
25214;DHT22;13160;51.834;4.706;2024-01-06T06:35:10;5.90;99.90
25214;DHT22;13160;51.834;4.706;2024-01-06T06:37:41;5.90;99.90
25214;DHT22;13160;51.834;4.706;2024-01-06T06:40:10;6.00;99.90
25214;DHT22;13160;51.834;4.706;2024-01-06T06:42:40;5.90;99.90
25214;DHT22;13160;51.834;4.706;2024-01-06T06:45:09;5.90;99.90
25214;DHT22;13160;51.834;4.706;2024-01-06T06:47:39;5.90;99.90
25214;DHT22;13160;51.834;4.706;2024-01-06T06:50:08;5.90;99.90
25214;DHT22;13160;51.834;4.706;2024-01-06T06:52:37;5.90;99.90
25214;DHT22;13160;51.834;4.706;2024-01-06T06:55:10;5.90;99.90
25214;DHT22;13160;51.834;4.706;2024-01-06T06:57:40;5.90;99.90
25214;DHT22;13160;51.834;4.706;2024-01-06T07:00:10;5.80;99.90
25214;DHT22;13160;51.834;4.706;2024-01-06T07:02:40;5.90;99.90
25214;DHT22;13160;51.834;4.706;2024-01-06T07:05:09;5.90;99.90
25214;DHT22;13160;51.834;4.706;2024-01-06T07:07:38;5.90;99.90
25214;DHT22;13160;51.834;4.706;2024-01-06T07:10:10;5.90;99.90
25214;DHT22;13160;51.834;4.706;2024-01-06T07:12:38;5.90;99.90
25214;DHT22;13160;51.834;4.706;2024-01-06T07:15:08;5.80;99.90
25214;DHT22;13160;51.834;4.706;2024-01-06T07:17:37;5.90;99.90
25214;DHT22;13160;51.834;4.706;2024-01-06T07:20:08;5.90;99.90
25214;DHT22;13160;51.834;4.706;2024-01-06T07:22:38;5.90;99.90
25214;DHT22;13160;51.834;4.706;2024-01-06T07:25:10;5.90;99.90
25214;DHT22;13160;51.834;4.706;2024-01-06T07:27:43;5.90;99.90
25214;DHT22;13160;51.834;4.706;2024-01-06T07:30:12;5.70;99.90
25214;DHT22;13160;51.834;4.706;2024-01-06T07:32:42;5.70;99.90
25214;DHT22;13160;51.834;4.706;2024-01-06T07:35:12;5.70;99.90
25214;DHT22;13160;51.834;4.706;2024-01-06T07:37:41;5.70;99.90
25214;DHT22;13160;51.834;4.706;2024-01-06T07:40:12;5.60;99.90
25214;DHT22;13160;51.834;4.706;2024-01-06T07:42:44;5.60;99.90
25214;DHT22;13160;51.834;4.706;2024-01-06T07:45:13;5.60;99.90
25214;DHT22;13160;51.834;4.706;2024-01-06T07:47:42;5.60;99.90
25214;DHT22;13160;51.834;4.706;2024-01-06T07:50:11;5.60;99.90
25214;DHT22;13160;51.834;4.706;2024-01-06T07:52:43;5.60;99.90
25214;DHT22;13160;51.834;4.706;2024-01-06T07:55:13;5.50;99.90
25214;DHT22;13160;51.834;4.706;2024-01-06T07:57:42;5.60;99.90
25214;DHT22;13160;51.834;4.706;2024-01-06T08:00:27;5.50;99.90
25214;DHT22;13160;51.834;4.706;2024-01-06T08:03:46;5.50;99.90
25214;DHT22;13160;51.834;4.706;2024-01-06T08:06:17;5.50;99.90
25214;DHT22;13160;51.834;4.706;2024-01-06T08:08:48;5.50;99.90
25214;DHT22;13160;51.834;4.706;2024-01-06T08:11:39;5.50;99.90
25214;DHT22;13160;51.834;4.706;2024-01-06T08:15:43;5.50;99.90
25214;DHT22;13160;51.834;4.706;2024-01-06T08:49:06;5.60;99.90
25214;DHT22;13160;51.834;4.706;2024-01-06T08:51:47;5.70;99.90
25214;DHT22;13160;51.834;4.706;2024-01-06T08:54:21;5.70;99.90
25214;DHT22;13160;51.834;4.706;2024-01-06T08:56:50;5.60;99.90
25214;DHT22;13160;51.834;4.706;2024-01-06T09:32:03;5.90;99.90
25214;DHT22;13160;51.834;4.706;2024-01-06T09:34:34;5.90;99.90
25214;DHT22;13160;51.834;4.706;2024-01-06T09:37:06;5.90;99.90
25214;DHT22;13160;51.834;4.706;2024-01-06T09:39:34;5.90;99.90
25214;DHT22;13160;51.834;4.706;2024-01-06T09:42:03;5.90;99.90
25214;DHT22;13160;51.834;4.706;2024-01-06T09:44:32;5.90;99.90
25214;DHT22;13160;51.834;4.706;2024-01-06T09:51:18;6.00;99.90
25214;DHT22;13160;51.834;4.706;2024-01-06T09:54:54;6.00;99.90
25214;DHT22;13160;51.834;4.706;2024-01-06T10:01:52;6.00;99.90
25214;DHT22;13160;51.834;4.706;2024-01-06T10:04:26;6.00;99.90
25214;DHT22;13160;51.834;4.706;2024-01-06T10:32:27;6.00;99.90
25214;DHT22;13160;51.834;4.706;2024-01-06T10:47:45;5.90;99.90
25214;DHT22;13160;51.834;4.706;2024-01-06T10:50:55;5.90;99.90
25214;DHT22;13160;51.834;4.706;2024-01-06T10:56:25;5.90;99.90
25214;DHT22;13160;51.834;4.706;2024-01-06T10:58:56;5.90;99.90
25214;DHT22;13160;51.834;4.706;2024-01-06T11:04:56;5.90;99.90
25214;DHT22;13160;51.834;4.706;2024-01-06T11:14:29;5.90;99.90
25214;DHT22;13160;51.834;4.706;2024-01-06T11:24:18;5.90;99.90
25214;DHT22;13160;51.834;4.706;2024-01-06T11:26:56;5.90;99.90
25214;DHT22;13160;51.834;4.706;2024-01-06T11:29:52;5.90;99.90
25214;DHT22;13160;51.834;4.706;2024-01-06T11:32:45;5.90;99.90
25214;DHT22;13160;51.834;4.706;2024-01-06T12:02:46;6.00;99.90
25214;DHT22;13160;51.834;4.706;2024-01-06T12:05:17;6.00;99.90
25214;DHT22;13160;51.834;4.706;2024-01-06T12:07:53;6.00;99.90
25214;DHT22;13160;51.834;4.706;2024-01-06T12:10:24;6.00;99.90
25214;DHT22;13160;51.834;4.706;2024-01-06T12:13:00;6.10;99.90
25214;DHT22;13160;51.834;4.706;2024-01-06T12:15:31;6.10;99.90
25214;DHT22;13160;51.834;4.706;2024-01-06T12:18:06;6.10;99.90
25214;DHT22;13160;51.834;4.706;2024-01-06T12:20:35;6.10;99.90
25214;DHT22;13160;51.834;4.706;2024-01-06T12:23:04;6.10;99.90
25214;DHT22;13160;51.834;4.706;2024-01-06T12:25:34;6.00;99.90
25214;DHT22;13160;51.834;4.706;2024-01-06T12:28:07;6.00;99.90
25214;DHT22;13160;51.834;4.706;2024-01-06T12:30:37;6.10;99.90
25214;DHT22;13160;51.834;4.706;2024-01-06T12:33:08;6.00;99.90
25214;DHT22;13160;51.834;4.706;2024-01-06T12:35:38;6.10;99.90
25214;DHT22;13160;51.834;4.706;2024-01-06T12:38:08;6.00;99.90
25214;DHT22;13160;51.834;4.706;2024-01-06T12:40:37;6.00;99.90
25214;DHT22;13160;51.834;4.706;2024-01-06T12:43:08;6.00;99.90
25214;DHT22;13160;51.834;4.706;2024-01-06T12:45:36;6.00;99.90
25214;DHT22;13160;51.834;4.706;2024-01-06T12:48:05;5.90;99.90
25214;DHT22;13160;51.834;4.706;2024-01-06T12:50:36;5.90;99.90
25214;DHT22;13160;51.834;4.706;2024-01-06T12:53:04;6.00;99.90
25214;DHT22;13160;51.834;4.706;2024-01-06T12:55:33;6.00;99.90
25214;DHT22;13160;51.834;4.706;2024-01-06T12:58:02;6.00;99.90
25214;DHT22;13160;51.834;4.706;2024-01-06T13:00:31;6.00;99.90
25214;DHT22;13160;51.834;4.706;2024-01-06T13:03:03;6.00;99.90
25214;DHT22;13160;51.834;4.706;2024-01-06T13:05:34;6.00;99.90
25214;DHT22;13160;51.834;4.706;2024-01-06T13:08:04;5.90;99.90
25214;DHT22;13160;51.834;4.706;2024-01-06T13:10:33;6.00;99.90
25214;DHT22;13160;51.834;4.706;2024-01-06T13:13:03;6.00;99.90
25214;DHT22;13160;51.834;4.706;2024-01-06T13:15:32;6.00;99.90
25214;DHT22;13160;51.834;4.706;2024-01-06T13:18:01;6.00;99.90
25214;DHT22;13160;51.834;4.706;2024-01-06T13:20:31;5.90;99.90
25214;DHT22;13160;51.834;4.706;2024-01-06T13:23:05;5.90;99.90
25214;DHT22;13160;51.834;4.706;2024-01-06T13:25:34;6.00;99.90
25214;DHT22;13160;51.834;4.706;2024-01-06T13:28:03;5.90;99.90
25214;DHT22;13160;51.834;4.706;2024-01-06T13:30:33;5.90;99.90
25214;DHT22;13160;51.834;4.706;2024-01-06T13:33:02;5.90;99.90
25214;DHT22;13160;51.834;4.706;2024-01-06T13:35:30;5.90;99.90
25214;DHT22;13160;51.834;4.706;2024-01-06T13:37:59;5.90;99.90
25214;DHT22;13160;51.834;4.706;2024-01-06T13:40:30;5.90;99.90
25214;DHT22;13160;51.834;4.706;2024-01-06T13:42:59;6.00;99.90
25214;DHT22;13160;51.834;4.706;2024-01-06T13:45:27;6.00;99.90
25214;DHT22;13160;51.834;4.706;2024-01-06T13:47:57;6.00;99.90
25214;DHT22;13160;51.834;4.706;2024-01-06T13:50:25;6.00;99.90
25214;DHT22;13160;51.834;4.706;2024-01-06T13:52:54;6.00;99.90
25214;DHT22;13160;51.834;4.706;2024-01-06T13:55:22;6.00;99.90
25214;DHT22;13160;51.834;4.706;2024-01-06T13:57:53;6.00;99.90
25214;DHT22;13160;51.834;4.706;2024-01-06T14:00:22;6.00;99.90
25214;DHT22;13160;51.834;4.706;2024-01-06T14:02:53;6.00;99.90
25214;DHT22;13160;51.834;4.706;2024-01-06T14:05:23;6.00;99.90
25214;DHT22;13160;51.834;4.706;2024-01-06T14:07:54;5.90;99.90
25214;DHT22;13160;51.834;4.706;2024-01-06T14:10:31;5.90;99.90
25214;DHT22;13160;51.834;4.706;2024-01-06T14:13:01;5.90;99.90
25214;DHT22;13160;51.834;4.706;2024-01-06T14:16:09;5.90;99.90
25214;DHT22;13160;51.834;4.706;2024-01-06T14:18:42;5.90;99.90
25214;DHT22;13160;51.834;4.706;2024-01-06T14:21:11;5.90;99.90
25214;DHT22;13160;51.834;4.706;2024-01-06T14:23:41;5.90;99.90
25214;DHT22;13160;51.834;4.706;2024-01-06T14:26:10;5.80;99.90
25214;DHT22;13160;51.834;4.706;2024-01-06T14:28:42;5.80;99.90
25214;DHT22;13160;51.834;4.706;2024-01-06T14:31:15;5.80;99.90
25214;DHT22;13160;51.834;4.706;2024-01-06T14:33:45;5.70;99.90
25214;DHT22;13160;51.834;4.706;2024-01-06T14:36:14;5.80;99.90
25214;DHT22;13160;51.834;4.706;2024-01-06T14:38:43;5.80;99.90
25214;DHT22;13160;51.834;4.706;2024-01-06T14:50:45;5.70;99.90
25214;DHT22;13160;51.834;4.706;2024-01-06T14:53:15;5.70;99.90
25214;DHT22;13160;51.834;4.706;2024-01-06T14:55:57;5.70;99.90
25214;DHT22;13160;51.834;4.706;2024-01-06T14:58:27;5.70;99.90
25214;DHT22;13160;51.834;4.706;2024-01-06T15:01:06;5.70;99.90
25214;DHT22;13160;51.834;4.706;2024-01-06T15:04:09;5.70;99.90
25214;DHT22;13160;51.834;4.706;2024-01-06T15:06:53;5.70;99.90
25214;DHT22;13160;51.834;4.706;2024-01-06T15:09:27;5.70;99.90
25214;DHT22;13160;51.834;4.706;2024-01-06T15:12:01;5.70;99.90
25214;DHT22;13160;51.834;4.706;2024-01-06T15:14:30;5.70;99.90
25214;DHT22;13160;51.834;4.706;2024-01-06T15:16:59;5.70;99.90
25214;DHT22;13160;51.834;4.706;2024-01-06T15:19:28;5.70;99.90
25214;DHT22;13160;51.834;4.706;2024-01-06T15:21:58;5.70;99.90
25214;DHT22;13160;51.834;4.706;2024-01-06T15:24:27;5.70;99.90
25214;DHT22;13160;51.834;4.706;2024-01-06T15:26:57;5.70;99.90
25214;DHT22;13160;51.834;4.706;2024-01-06T15:29:26;5.70;99.90
25214;DHT22;13160;51.834;4.706;2024-01-06T15:31:55;5.70;99.90
25214;DHT22;13160;51.834;4.706;2024-01-06T15:34:24;5.70;99.90
25214;DHT22;13160;51.834;4.706;2024-01-06T15:36:55;5.70;99.90
25214;DHT22;13160;51.834;4.706;2024-01-06T15:39:24;5.60;99.90
25214;DHT22;13160;51.834;4.706;2024-01-06T15:41:55;5.60;99.90
25214;DHT22;13160;51.834;4.706;2024-01-06T15:44:26;5.60;99.90
25214;DHT22;13160;51.834;4.706;2024-01-06T15:46:59;5.50;99.90
25214;DHT22;13160;51.834;4.706;2024-01-06T15:49:28;5.50;99.90
25214;DHT22;13160;51.834;4.706;2024-01-06T15:52:04;5.50;99.90
25214;DHT22;13160;51.834;4.706;2024-01-06T15:54:34;5.50;99.90
25214;DHT22;13160;51.834;4.706;2024-01-06T15:57:07;5.50;99.90
25214;DHT22;13160;51.834;4.706;2024-01-06T15:59:38;5.50;99.90
25214;DHT22;13160;51.834;4.706;2024-01-06T16:02:08;5.50;99.90
25214;DHT22;13160;51.834;4.706;2024-01-06T16:04:40;5.50;99.90
25214;DHT22;13160;51.834;4.706;2024-01-06T16:07:10;5.50;99.90
25214;DHT22;13160;51.834;4.706;2024-01-06T16:09:39;5.50;99.90
25214;DHT22;13160;51.834;4.706;2024-01-06T16:12:08;5.40;99.90
25214;DHT22;13160;51.834;4.706;2024-01-06T16:14:46;5.40;99.90
25214;DHT22;13160;51.834;4.706;2024-01-06T16:17:15;5.40;99.90
25214;DHT22;13160;51.834;4.706;2024-01-06T16:19:43;5.40;99.90
25214;DHT22;13160;51.834;4.706;2024-01-06T16:22:14;5.40;99.90
25214;DHT22;13160;51.834;4.706;2024-01-06T16:24:44;5.40;99.90
25214;DHT22;13160;51.834;4.706;2024-01-06T16:27:13;5.30;99.90
25214;DHT22;13160;51.834;4.706;2024-01-06T16:29:42;5.40;99.90
25214;DHT22;13160;51.834;4.706;2024-01-06T16:32:11;5.40;99.90
25214;DHT22;13160;51.834;4.706;2024-01-06T16:34:40;5.40;99.90
25214;DHT22;13160;51.834;4.706;2024-01-06T16:37:09;5.40;99.90
25214;DHT22;13160;51.834;4.706;2024-01-06T16:39:39;5.30;99.90
25214;DHT22;13160;51.834;4.706;2024-01-06T16:42:12;5.30;99.90
25214;DHT22;13160;51.834;4.706;2024-01-06T16:44:48;5.40;99.90
25214;DHT22;13160;51.834;4.706;2024-01-06T16:47:17;5.40;99.90
25214;DHT22;13160;51.834;4.706;2024-01-06T16:49:46;5.40;99.90
25214;DHT22;13160;51.834;4.706;2024-01-06T16:52:15;5.30;99.90
25214;DHT22;13160;51.834;4.706;2024-01-06T16:54:46;5.40;99.90
25214;DHT22;13160;51.834;4.706;2024-01-06T16:57:16;5.30;99.90
25214;DHT22;13160;51.834;4.706;2024-01-06T16:59:55;5.30;99.90
25214;DHT22;13160;51.834;4.706;2024-01-06T17:05:00;5.30;99.90
25214;DHT22;13160;51.834;4.706;2024-01-06T17:07:30;5.40;99.90
25214;DHT22;13160;51.834;4.706;2024-01-06T17:10:02;5.30;99.90
25214;DHT22;13160;51.834;4.706;2024-01-06T17:12:31;5.30;99.90
25214;DHT22;13160;51.834;4.706;2024-01-06T17:15:01;5.30;99.90
25214;DHT22;13160;51.834;4.706;2024-01-06T17:17:30;5.40;99.90
25214;DHT22;13160;51.834;4.706;2024-01-06T17:19:59;5.30;99.90
25214;DHT22;13160;51.834;4.706;2024-01-06T17:22:28;5.40;99.90
25214;DHT22;13160;51.834;4.706;2024-01-06T17:24:56;5.40;99.90
25214;DHT22;13160;51.834;4.706;2024-01-06T17:27:27;5.40;99.90
25214;DHT22;13160;51.834;4.706;2024-01-06T17:29:57;5.40;99.90
25214;DHT22;13160;51.834;4.706;2024-01-06T17:32:30;5.30;99.90
25214;DHT22;13160;51.834;4.706;2024-01-06T17:35:06;5.40;99.90
25214;DHT22;13160;51.834;4.706;2024-01-06T17:37:48;5.30;99.90
25214;DHT22;13160;51.834;4.706;2024-01-06T17:40:31;5.40;99.90
25214;DHT22;13160;51.834;4.706;2024-01-06T17:43:05;5.30;99.90
25214;DHT22;13160;51.834;4.706;2024-01-06T17:45:34;5.30;99.90
25214;DHT22;13160;51.834;4.706;2024-01-06T17:48:04;5.30;99.90
25214;DHT22;13160;51.834;4.706;2024-01-06T17:50:34;5.40;99.90
25214;DHT22;13160;51.834;4.706;2024-01-06T17:53:03;5.30;99.90
25214;DHT22;13160;51.834;4.706;2024-01-06T17:55:32;5.30;99.90
25214;DHT22;13160;51.834;4.706;2024-01-06T17:58:02;5.30;99.90
25214;DHT22;13160;51.834;4.706;2024-01-06T18:00:32;5.30;99.90
25214;DHT22;13160;51.834;4.706;2024-01-06T18:03:00;5.20;99.90
25214;DHT22;13160;51.834;4.706;2024-01-06T18:05:30;5.20;99.90
25214;DHT22;13160;51.834;4.706;2024-01-06T18:07:58;5.20;99.90
25214;DHT22;13160;51.834;4.706;2024-01-06T18:10:26;5.20;99.90
25214;DHT22;13160;51.834;4.706;2024-01-06T18:12:55;5.20;99.90
25214;DHT22;13160;51.834;4.706;2024-01-06T18:15:26;5.20;99.90
25214;DHT22;13160;51.834;4.706;2024-01-06T18:18:00;5.20;99.90
25214;DHT22;13160;51.834;4.706;2024-01-06T18:20:32;5.20;99.90
25214;DHT22;13160;51.834;4.706;2024-01-06T18:23:04;5.20;99.90
25214;DHT22;13160;51.834;4.706;2024-01-06T18:25:33;5.20;99.90
25214;DHT22;13160;51.834;4.706;2024-01-06T18:28:02;5.20;99.90
25214;DHT22;13160;51.834;4.706;2024-01-06T18:34:23;5.20;99.90
25214;DHT22;13160;51.834;4.706;2024-01-06T18:36:59;5.20;99.90
25214;DHT22;13160;51.834;4.706;2024-01-06T18:39:34;5.10;99.90
25214;DHT22;13160;51.834;4.706;2024-01-06T18:42:04;5.10;99.90
25214;DHT22;13160;51.834;4.706;2024-01-06T18:47:39;5.00;99.90
25214;DHT22;13160;51.834;4.706;2024-01-06T18:50:30;4.90;99.90
25214;DHT22;13160;51.834;4.706;2024-01-06T18:53:04;4.90;99.90
25214;DHT22;13160;51.834;4.706;2024-01-06T18:55:35;4.90;99.90
25214;DHT22;13160;51.834;4.706;2024-01-06T18:58:13;4.90;99.90
25214;DHT22;13160;51.834;4.706;2024-01-06T19:00:50;4.90;99.90
25214;DHT22;13160;51.834;4.706;2024-01-06T19:03:20;4.80;99.90
25214;DHT22;13160;51.834;4.706;2024-01-06T19:05:50;4.80;99.90
25214;DHT22;13160;51.834;4.706;2024-01-06T19:08:24;4.80;99.90
25214;DHT22;13160;51.834;4.706;2024-01-06T19:10:57;4.80;99.90
25214;DHT22;13160;51.834;4.706;2024-01-06T19:13:35;4.80;99.90
25214;DHT22;13160;51.834;4.706;2024-01-06T19:16:08;4.70;99.90
25214;DHT22;13160;51.834;4.706;2024-01-06T19:18:37;4.70;99.90
25214;DHT22;13160;51.834;4.706;2024-01-06T19:21:12;4.70;99.90
25214;DHT22;13160;51.834;4.706;2024-01-06T19:23:42;4.70;99.90
25214;DHT22;13160;51.834;4.706;2024-01-06T19:26:11;4.70;99.90
25214;DHT22;13160;51.834;4.706;2024-01-06T19:28:39;4.70;99.90
25214;DHT22;13160;51.834;4.706;2024-01-06T19:31:16;4.70;99.90
25214;DHT22;13160;51.834;4.706;2024-01-06T19:33:51;4.70;99.90
25214;DHT22;13160;51.834;4.706;2024-01-06T19:36:25;4.80;99.90
25214;DHT22;13160;51.834;4.706;2024-01-06T19:39:04;4.70;99.90
25214;DHT22;13160;51.834;4.706;2024-01-06T19:42:02;4.70;99.90
25214;DHT22;13160;51.834;4.706;2024-01-06T19:44:41;4.70;99.90
25214;DHT22;13160;51.834;4.706;2024-01-06T19:47:36;4.70;99.90
25214;DHT22;13160;51.834;4.706;2024-01-06T19:50:14;4.70;99.90
25214;DHT22;13160;51.834;4.706;2024-01-06T19:53:01;4.70;99.90
25214;DHT22;13160;51.834;4.706;2024-01-06T19:55:37;4.70;99.90
25214;DHT22;13160;51.834;4.706;2024-01-06T19:58:18;4.70;99.90
25214;DHT22;13160;51.834;4.706;2024-01-06T20:00:48;4.60;99.90
25214;DHT22;13160;51.834;4.706;2024-01-06T20:03:26;4.60;99.90
25214;DHT22;13160;51.834;4.706;2024-01-06T20:06:09;4.70;99.90
25214;DHT22;13160;51.834;4.706;2024-01-06T20:08:46;4.70;99.90
25214;DHT22;13160;51.834;4.706;2024-01-06T20:11:23;4.60;99.90
25214;DHT22;13160;51.834;4.706;2024-01-06T20:14:19;4.60;99.90
25214;DHT22;13160;51.834;4.706;2024-01-06T20:20:32;4.60;99.90
25214;DHT22;13160;51.834;4.706;2024-01-06T20:23:17;4.60;99.90
25214;DHT22;13160;51.834;4.706;2024-01-06T20:25:58;4.60;99.90
25214;DHT22;13160;51.834;4.706;2024-01-06T20:28:35;4.60;99.90
25214;DHT22;13160;51.834;4.706;2024-01-06T20:31:09;4.60;99.90
25214;DHT22;13160;51.834;4.706;2024-01-06T20:34:10;4.60;99.90
25214;DHT22;13160;51.834;4.706;2024-01-06T20:37:01;4.60;99.90
25214;DHT22;13160;51.834;4.706;2024-01-06T20:39:50;4.60;99.90
25214;DHT22;13160;51.834;4.706;2024-01-06T20:42:23;4.60;99.90
25214;DHT22;13160;51.834;4.706;2024-01-06T20:44:54;4.60;99.90
25214;DHT22;13160;51.834;4.706;2024-01-06T20:47:23;4.60;99.90
25214;DHT22;13160;51.834;4.706;2024-01-06T20:50:03;4.60;99.90
25214;DHT22;13160;51.834;4.706;2024-01-06T20:52:36;4.60;99.90
25214;DHT22;13160;51.834;4.706;2024-01-06T20:55:09;4.50;99.90
25214;DHT22;13160;51.834;4.706;2024-01-06T20:57:42;4.60;99.90
25214;DHT22;13160;51.834;4.706;2024-01-06T21:00:21;4.60;99.90
25214;DHT22;13160;51.834;4.706;2024-01-06T21:03:01;4.50;99.90
25214;DHT22;13160;51.834;4.706;2024-01-06T21:05:35;4.50;99.90
25214;DHT22;13160;51.834;4.706;2024-01-06T21:08:09;4.50;99.90
25214;DHT22;13160;51.834;4.706;2024-01-06T21:10:42;4.40;99.90
25214;DHT22;13160;51.834;4.706;2024-01-06T21:13:21;4.50;99.90
25214;DHT22;13160;51.834;4.706;2024-01-06T21:16:05;4.40;99.90
25214;DHT22;13160;51.834;4.706;2024-01-06T21:18:38;4.50;99.90
25214;DHT22;13160;51.834;4.706;2024-01-06T21:21:14;4.40;99.90
25214;DHT22;13160;51.834;4.706;2024-01-06T21:23:48;4.50;99.90
25214;DHT22;13160;51.834;4.706;2024-01-06T21:26:19;4.40;99.90
25214;DHT22;13160;51.834;4.706;2024-01-06T21:28:54;4.40;99.90
25214;DHT22;13160;51.834;4.706;2024-01-06T21:31:23;4.40;99.90
25214;DHT22;13160;51.834;4.706;2024-01-06T21:33:56;4.40;99.90
25214;DHT22;13160;51.834;4.706;2024-01-06T21:36:28;4.40;99.90
25214;DHT22;13160;51.834;4.706;2024-01-06T21:39:00;4.40;99.90
25214;DHT22;13160;51.834;4.706;2024-01-06T21:41:33;4.30;99.90
25214;DHT22;13160;51.834;4.706;2024-01-06T21:44:12;4.30;99.90
25214;DHT22;13160;51.834;4.706;2024-01-06T21:46:42;4.30;99.90
25214;DHT22;13160;51.834;4.706;2024-01-06T21:49:11;4.20;99.90
25214;DHT22;13160;51.834;4.706;2024-01-06T21:51:47;4.20;99.90
25214;DHT22;13160;51.834;4.706;2024-01-06T21:54:21;4.30;99.90
25214;DHT22;13160;51.834;4.706;2024-01-06T21:56:53;4.30;99.90
25214;DHT22;13160;51.834;4.706;2024-01-06T21:59:27;4.30;99.90
25214;DHT22;13160;51.834;4.706;2024-01-06T22:01:56;4.20;99.90
25214;DHT22;13160;51.834;4.706;2024-01-06T22:04:26;4.20;99.90
25214;DHT22;13160;51.834;4.706;2024-01-06T22:06:58;4.20;99.90
25214;DHT22;13160;51.834;4.706;2024-01-06T22:09:27;4.20;99.90
25214;DHT22;13160;51.834;4.706;2024-01-06T22:11:57;4.20;99.90
25214;DHT22;13160;51.834;4.706;2024-01-06T22:14:27;4.20;99.90
25214;DHT22;13160;51.834;4.706;2024-01-06T22:17:00;4.20;99.90
25214;DHT22;13160;51.834;4.706;2024-01-06T22:19:30;4.20;99.90
25214;DHT22;13160;51.834;4.706;2024-01-06T22:21:59;4.10;99.90
25214;DHT22;13160;51.834;4.706;2024-01-06T22:24:30;4.10;99.90
25214;DHT22;13160;51.834;4.706;2024-01-06T22:26:59;4.10;99.90
25214;DHT22;13160;51.834;4.706;2024-01-06T22:29:32;4.00;99.90
25214;DHT22;13160;51.834;4.706;2024-01-06T22:32:06;4.00;99.90
25214;DHT22;13160;51.834;4.706;2024-01-06T22:34:35;4.00;99.90
25214;DHT22;13160;51.834;4.706;2024-01-06T22:37:07;4.00;99.90
25214;DHT22;13160;51.834;4.706;2024-01-06T22:39:36;4.00;99.90
25214;DHT22;13160;51.834;4.706;2024-01-06T22:42:05;3.90;99.90
25214;DHT22;13160;51.834;4.706;2024-01-06T22:44:39;3.90;99.90
25214;DHT22;13160;51.834;4.706;2024-01-06T22:47:09;3.90;99.90
25214;DHT22;13160;51.834;4.706;2024-01-06T22:49:47;3.90;99.90
25214;DHT22;13160;51.834;4.706;2024-01-06T22:52:16;3.90;99.90
25214;DHT22;13160;51.834;4.706;2024-01-06T22:54:49;3.90;99.90
25214;DHT22;13160;51.834;4.706;2024-01-06T22:57:19;3.80;99.90
25214;DHT22;13160;51.834;4.706;2024-01-06T22:59:49;3.80;99.90
25214;DHT22;13160;51.834;4.706;2024-01-06T23:02:19;3.80;99.90
25214;DHT22;13160;51.834;4.706;2024-01-06T23:04:50;3.70;99.90
25214;DHT22;13160;51.834;4.706;2024-01-06T23:07:25;3.70;99.90